createdAt,value
2017-12-22T00:00:44.406Z,4.62
2017-12-22T00:03:19.268Z,4.65
2017-12-22T00:05:54.222Z,4.65
2017-12-22T00:08:28.683Z,4.66
2017-12-22T00:11:03.125Z,4.68
2017-12-22T00:13:37.560Z,4.69
2017-12-22T00:16:12.053Z,4.70
2017-12-22T00:18:46.558Z,4.67
2017-12-22T00:21:20.926Z,4.67
2017-12-22T00:23:55.421Z,4.69
2017-12-22T00:26:29.820Z,4.64
2017-12-22T00:29:04.310Z,4.69
2017-12-22T00:31:38.741Z,4.69
2017-12-22T00:34:13.226Z,4.71
2017-12-22T00:36:47.686Z,4.72
2017-12-22T00:39:22.226Z,4.72
2017-12-22T00:41:57.287Z,4.74
2017-12-22T00:44:31.942Z,4.75
2017-12-22T00:47:06.398Z,4.77
2017-12-22T00:49:40.982Z,4.81
2017-12-22T00:52:15.410Z,4.79
2017-12-22T00:54:50.502Z,4.63
2017-12-22T00:57:25.116Z,4.87
2017-12-22T00:59:59.624Z,4.88
2017-12-22T01:02:33.994Z,4.88
2017-12-22T01:05:09.465Z,4.92
2017-12-22T01:07:43.921Z,4.89
2017-12-22T01:10:18.290Z,4.92
2017-12-22T01:12:52.852Z,4.92
2017-12-22T01:15:32.609Z,4.94
2017-12-22T01:18:12.650Z,4.96
2017-12-22T01:20:47.187Z,4.99
2017-12-22T01:23:21.698Z,4.99
2017-12-22T01:25:56.142Z,5.00
2017-12-22T01:28:30.658Z,5.01
2017-12-22T01:31:05.238Z,5.01
2017-12-22T01:33:39.792Z,5.01
2017-12-22T01:36:14.216Z,5.03
2017-12-22T01:38:49.622Z,5.04
2017-12-22T01:41:25.074Z,5.06
2017-12-22T01:43:59.670Z,5.05
2017-12-22T01:46:34.149Z,5.10
2017-12-22T01:49:08.726Z,5.09
2017-12-22T01:51:43.235Z,5.14
2017-12-22T01:54:17.795Z,5.16
2017-12-22T01:56:52.238Z,5.15
2017-12-22T01:59:26.902Z,5.15
2017-12-22T02:02:01.351Z,5.23
2017-12-22T02:04:35.962Z,5.24
2017-12-22T02:07:10.390Z,5.25
2017-12-22T02:09:45.028Z,5.27
2017-12-22T02:12:19.456Z,5.27
2017-12-22T02:14:53.991Z,5.26
2017-12-22T02:17:28.490Z,5.26
2017-12-22T02:20:03.521Z,5.12
2017-12-22T02:22:38.030Z,5.32
2017-12-22T02:25:12.458Z,5.31
2017-12-22T02:27:46.986Z,5.33
2017-12-22T02:30:21.407Z,5.33
2017-12-22T02:32:55.894Z,5.35
2017-12-22T02:35:31.303Z,5.34
2017-12-22T02:38:05.864Z,5.30
2017-12-22T02:40:40.225Z,5.38
2017-12-22T02:43:14.810Z,5.39
2017-12-22T02:45:49.283Z,5.37
2017-12-22T02:48:23.819Z,5.40
2017-12-22T02:50:58.198Z,5.41
2017-12-22T02:53:32.712Z,5.38
2017-12-22T02:56:07.519Z,5.41
2017-12-22T02:58:41.898Z,5.42
2017-12-22T03:01:16.300Z,5.42
2017-12-22T03:03:50.866Z,5.48
2017-12-22T03:06:25.234Z,5.50
2017-12-22T03:08:59.758Z,5.46
2017-12-22T03:11:34.210Z,5.48
2017-12-22T03:14:08.698Z,5.50
2017-12-22T03:16:43.114Z,5.52
2017-12-22T03:19:17.631Z,5.52
2017-12-22T03:21:52.036Z,5.53
2017-12-22T03:24:26.522Z,5.54
2017-12-22T03:27:00.905Z,5.58
2017-12-22T03:29:35.413Z,5.61
2017-12-22T03:32:09.794Z,5.62
2017-12-22T03:34:44.292Z,5.65
2017-12-22T03:37:18.778Z,5.67
2017-12-22T03:39:53.341Z,5.69
2017-12-22T03:42:27.724Z,5.69
2017-12-22T03:45:02.254Z,5.69
2017-12-22T03:47:38.710Z,5.70
2017-12-22T03:50:13.201Z,5.72
2017-12-22T03:52:47.717Z,5.75
2017-12-22T03:55:22.222Z,5.80
2017-12-22T03:57:56.734Z,5.82
2017-12-22T04:00:31.202Z,5.82
2017-12-22T04:03:05.726Z,5.84
2017-12-22T04:05:40.118Z,5.86
2017-12-22T04:08:14.478Z,5.89
2017-12-22T04:10:48.923Z,5.90
2017-12-22T04:13:23.474Z,5.92
2017-12-22T04:15:57.927Z,5.93
2017-12-22T04:18:32.543Z,5.91
2017-12-22T04:21:06.917Z,5.97
2017-12-22T04:23:41.917Z,5.97
2017-12-22T04:26:17.138Z,5.96
2017-12-22T04:28:51.638Z,5.95
2017-12-22T04:31:26.082Z,6.00
2017-12-22T04:34:00.775Z,5.98
2017-12-22T04:36:35.153Z,6.03
2017-12-22T04:39:09.585Z,6.03
2017-12-22T04:41:43.934Z,6.05
2017-12-22T04:44:18.534Z,6.03
2017-12-22T04:46:52.934Z,6.04
2017-12-22T04:49:27.415Z,6.07
2017-12-22T04:52:01.872Z,6.08
2017-12-22T04:54:36.246Z,6.07
2017-12-22T04:57:10.629Z,6.02
2017-12-22T04:59:45.106Z,6.01
2017-12-22T05:02:19.582Z,6.00
2017-12-22T05:04:54.146Z,6.03
2017-12-22T05:07:28.538Z,6.06
2017-12-22T05:10:02.915Z,6.05
2017-12-22T05:12:37.295Z,6.02
2017-12-22T05:15:11.710Z,6.04
2017-12-22T05:17:46.163Z,6.08
2017-12-22T05:20:21.258Z,6.15
2017-12-22T05:22:55.894Z,6.04
2017-12-22T05:25:30.374Z,6.17
2017-12-22T05:28:04.879Z,6.17
2017-12-22T05:30:39.472Z,6.22
2017-12-22T05:33:13.972Z,6.27
2017-12-22T05:35:48.457Z,6.18
2017-12-22T05:38:22.993Z,6.18
2017-12-22T05:40:57.437Z,6.21
2017-12-22T05:43:31.986Z,6.24
2017-12-22T05:46:06.379Z,6.27
2017-12-22T05:48:40.938Z,6.26
2017-12-22T05:51:15.347Z,6.28
2017-12-22T05:53:49.683Z,6.30
2017-12-22T05:56:24.166Z,6.30
2017-12-22T05:58:58.794Z,6.28
2017-12-22T06:01:33.157Z,6.31
2017-12-22T06:04:08.145Z,6.30
2017-12-22T06:06:42.663Z,6.30
2017-12-22T06:09:17.054Z,6.02
2017-12-22T06:11:51.457Z,6.38
2017-12-22T06:14:25.931Z,6.39
2017-12-22T06:17:00.349Z,6.37
2017-12-22T06:19:34.885Z,6.35
2017-12-22T06:22:09.302Z,6.42
2017-12-22T06:24:43.867Z,6.42
2017-12-22T06:27:18.227Z,6.43
2017-12-22T06:29:52.901Z,6.36
2017-12-22T06:32:27.263Z,6.46
2017-12-22T06:35:01.646Z,6.52
2017-12-22T06:37:36.143Z,6.45
2017-12-22T06:40:10.658Z,6.44
2017-12-22T06:42:45.150Z,6.43
2017-12-22T06:45:21.557Z,6.43
2017-12-22T06:47:56.647Z,6.46
2017-12-22T06:50:31.094Z,6.44
2017-12-22T06:53:06.529Z,6.43
2017-12-22T06:55:41.205Z,6.43
2017-12-22T06:58:15.808Z,6.46
2017-12-22T07:00:50.346Z,6.50
2017-12-22T07:03:24.758Z,6.49
2017-12-22T07:05:59.120Z,6.45
2017-12-22T07:08:33.499Z,6.48
2017-12-22T07:11:07.946Z,6.49
2017-12-22T07:13:42.599Z,6.50
2017-12-22T07:16:17.134Z,6.50
2017-12-22T07:18:52.053Z,6.46
2017-12-22T07:21:26.422Z,6.51
2017-12-22T07:24:00.948Z,6.50
2017-12-22T07:26:35.556Z,6.47
2017-12-22T07:29:10.156Z,6.46
2017-12-22T07:31:44.571Z,6.49
2017-12-22T07:34:19.065Z,6.50
2017-12-22T07:36:53.433Z,6.51
2017-12-22T07:39:27.844Z,6.55
2017-12-22T07:42:02.591Z,6.56
2017-12-22T07:44:37.128Z,6.51
2017-12-22T07:47:11.569Z,6.55
2017-12-22T07:49:46.069Z,6.59
2017-12-22T07:52:20.545Z,6.56
2017-12-22T07:54:55.089Z,6.59
2017-12-22T07:57:29.550Z,6.63
2017-12-22T08:00:04.002Z,6.70
2017-12-22T08:02:38.506Z,6.72
2017-12-22T08:05:12.907Z,6.69
2017-12-22T08:07:47.955Z,6.74
2017-12-22T08:10:22.502Z,6.75
2017-12-22T08:12:56.883Z,6.78
2017-12-22T08:15:31.330Z,6.79
2017-12-22T08:18:05.822Z,6.79
2017-12-22T08:20:40.243Z,6.84
2017-12-22T08:23:14.818Z,6.85
2017-12-22T08:25:49.403Z,6.89
2017-12-22T08:28:24.027Z,6.89
2017-12-22T08:30:58.390Z,6.87
2017-12-22T08:33:32.901Z,6.90
2017-12-22T08:36:07.641Z,6.99
2017-12-22T08:38:42.125Z,7.03
2017-12-22T08:41:16.566Z,7.12
2017-12-22T08:43:51.148Z,7.12
2017-12-22T08:46:25.550Z,7.12
2017-12-22T08:49:00.067Z,7.15
2017-12-22T08:51:35.735Z,7.23
2017-12-22T08:54:10.222Z,7.29
2017-12-22T08:56:44.614Z,7.41
2017-12-22T08:59:19.131Z,7.49
2017-12-22T09:01:53.553Z,7.42
2017-12-22T09:04:27.782Z,7.53
2017-12-22T09:07:03.034Z,7.64
2017-12-22T09:09:37.529Z,7.62
2017-12-22T09:12:11.924Z,7.57
2017-12-22T09:14:46.350Z,7.68
2017-12-22T09:17:20.796Z,7.57
2017-12-22T09:19:55.322Z,7.53
2017-12-22T09:22:29.731Z,7.64
2017-12-22T09:25:03.990Z,7.68
2017-12-22T09:27:38.711Z,7.81
2017-12-22T09:30:13.747Z,7.60
2017-12-22T09:32:48.462Z,7.72
2017-12-22T09:35:22.932Z,7.83
2017-12-22T09:37:57.336Z,7.79
2017-12-22T09:40:31.759Z,7.61
2017-12-22T09:43:06.463Z,7.74
2017-12-22T09:45:40.894Z,7.75
2017-12-22T09:48:15.606Z,7.72
2017-12-22T09:50:50.174Z,7.75
2017-12-22T09:53:24.733Z,7.86
2017-12-22T09:55:59.144Z,7.90
2017-12-22T09:58:33.731Z,8.04
2017-12-22T10:01:08.353Z,8.12
2017-12-22T10:03:42.908Z,8.09
2017-12-22T10:06:17.396Z,8.06
2017-12-22T10:08:51.791Z,7.91
2017-12-22T10:11:26.295Z,7.92
2017-12-22T10:14:00.779Z,7.75
2017-12-22T10:16:35.214Z,7.86
2017-12-22T10:19:09.790Z,7.86
2017-12-22T10:21:44.211Z,7.88
2017-12-22T10:24:18.569Z,8.07
2017-12-22T10:26:52.710Z,8.13
2017-12-22T10:29:27.121Z,8.14
2017-12-22T10:32:01.515Z,8.11
2017-12-22T10:34:36.042Z,8.07
2017-12-22T10:37:10.614Z,7.95
2017-12-22T10:39:45.157Z,8.13
2017-12-22T10:42:20.351Z,8.22
2017-12-22T10:44:54.784Z,8.20
2017-12-22T10:47:29.210Z,8.24
2017-12-22T10:50:04.300Z,8.24
2017-12-22T10:52:38.809Z,8.21
2017-12-22T10:55:13.254Z,8.21
2017-12-22T10:57:47.704Z,8.18
2017-12-22T11:00:21.545Z,8.15
2017-12-22T11:02:55.934Z,8.27
2017-12-22T11:05:30.399Z,8.28
2017-12-22T11:08:05.334Z,8.25
2017-12-22T11:10:39.914Z,8.38
2017-12-22T11:13:14.322Z,8.28
2017-12-22T11:15:48.715Z,8.23
2017-12-22T11:18:23.186Z,8.25
2017-12-22T11:20:57.549Z,8.19
2017-12-22T11:23:32.881Z,8.20
2017-12-22T11:26:07.354Z,8.32
2017-12-22T11:28:41.855Z,8.29
2017-12-22T11:31:17.250Z,8.35
2017-12-22T11:33:51.806Z,8.38
2017-12-22T11:36:26.245Z,8.42
2017-12-22T11:39:00.814Z,8.27
2017-12-22T11:41:35.309Z,8.36
2017-12-22T11:44:09.998Z,8.38
2017-12-22T11:46:44.588Z,8.39
2017-12-22T11:49:19.122Z,8.50
2017-12-22T11:51:53.718Z,8.45
2017-12-22T11:54:28.339Z,8.34
2017-12-22T11:57:02.777Z,8.30
2017-12-22T11:59:37.241Z,8.36
2017-12-22T12:02:11.608Z,8.48
2017-12-22T12:04:46.178Z,8.41
2017-12-22T12:07:20.979Z,8.51
2017-12-22T12:09:55.431Z,8.29
2017-12-22T12:12:30.023Z,8.36
2017-12-22T12:15:14.106Z,8.31
2017-12-22T12:17:48.678Z,8.29
2017-12-22T12:20:23.380Z,8.27
2017-12-22T12:22:59.259Z,8.23
2017-12-22T12:25:34.467Z,8.21
2017-12-22T12:28:08.967Z,8.27
2017-12-22T12:30:44.134Z,8.22
2017-12-22T12:33:18.571Z,8.24
2017-12-22T12:35:53.902Z,8.12
2017-12-22T12:38:28.302Z,8.10
2017-12-22T12:41:02.802Z,8.19
2017-12-22T12:43:37.958Z,8.04
2017-12-22T12:46:12.494Z,8.06
2017-12-22T12:48:47.020Z,8.00
2017-12-22T12:51:22.362Z,7.99
2017-12-22T12:53:56.875Z,7.99
2017-12-22T12:56:31.352Z,8.09
2017-12-22T12:59:05.783Z,8.05
2017-12-22T13:01:40.223Z,8.09
2017-12-22T13:04:15.593Z,8.06
2017-12-22T13:06:50.108Z,8.14
2017-12-22T13:09:25.290Z,7.92
2017-12-22T13:11:59.559Z,8.01
2017-12-22T13:14:33.899Z,8.00
2017-12-22T13:17:08.803Z,8.15
2017-12-22T13:19:43.217Z,8.12
2017-12-22T13:22:17.604Z,8.13
2017-12-22T13:24:51.966Z,8.32
2017-12-22T13:27:26.390Z,8.35
2017-12-22T13:30:00.899Z,8.41
2017-12-22T13:32:35.288Z,8.47
2017-12-22T13:35:11.150Z,8.45
2017-12-22T13:37:45.416Z,8.26
2017-12-22T13:40:19.908Z,8.35
2017-12-22T13:42:54.333Z,8.14
2017-12-22T13:45:28.786Z,8.13
2017-12-22T13:48:03.254Z,7.89
2017-12-22T13:50:37.733Z,7.92
2017-12-22T13:53:12.109Z,7.88
2017-12-22T13:55:46.986Z,7.88
2017-12-22T13:58:21.484Z,7.88
2017-12-22T14:00:57.096Z,7.83
2017-12-22T14:03:31.754Z,7.72
2017-12-22T14:06:06.138Z,7.73
2017-12-22T14:08:41.435Z,7.68
2017-12-22T14:11:16.043Z,7.68
2017-12-22T14:13:50.553Z,7.70
2017-12-22T14:16:24.926Z,7.69
2017-12-22T14:18:59.352Z,7.69
2017-12-22T14:21:33.846Z,7.74
2017-12-22T14:24:08.339Z,7.71
2017-12-22T14:26:42.826Z,7.70
2017-12-22T14:29:17.329Z,7.69
2017-12-22T14:31:51.777Z,7.69
2017-12-22T14:34:26.370Z,7.73
2017-12-22T14:37:00.855Z,7.66
2017-12-22T14:39:35.423Z,7.65
2017-12-22T14:42:09.832Z,7.61
2017-12-22T14:44:44.346Z,7.62
2017-12-22T14:47:18.738Z,7.57
2017-12-22T14:49:53.327Z,7.47
2017-12-22T14:52:27.708Z,7.52
2017-12-22T14:55:02.218Z,7.45
2017-12-22T14:57:38.308Z,7.43
2017-12-22T15:00:12.707Z,7.40
2017-12-22T15:02:47.215Z,7.39
2017-12-22T15:05:21.616Z,7.37
2017-12-22T15:07:55.965Z,7.41
2017-12-22T15:10:30.440Z,7.38
2017-12-22T15:13:04.884Z,7.38
2017-12-22T15:15:39.406Z,7.29
2017-12-22T15:18:13.834Z,7.38
2017-12-22T15:20:48.210Z,7.42
2017-12-22T15:23:22.711Z,7.45
2017-12-22T15:25:59.482Z,7.49
2017-12-22T15:28:34.084Z,7.41
2017-12-22T15:31:08.434Z,7.40
2017-12-22T15:33:43.491Z,7.37
2017-12-22T15:36:18.140Z,7.34
2017-12-22T15:38:52.542Z,6.70
2017-12-22T15:41:27.462Z,7.29
2017-12-22T15:44:02.882Z,7.29
2017-12-22T15:46:38.103Z,7.25
2017-12-22T15:49:13.441Z,7.25
2017-12-22T15:51:47.798Z,7.30
2017-12-22T15:54:22.299Z,7.23
2017-12-22T15:56:56.771Z,7.18
2017-12-22T15:59:31.217Z,7.18
2017-12-22T16:02:05.629Z,7.16
2017-12-22T16:04:40.185Z,7.13
2017-12-22T16:07:14.582Z,7.10
2017-12-22T16:09:49.032Z,7.17
2017-12-22T16:12:24.310Z,7.13
2017-12-22T16:14:59.236Z,7.05
2017-12-22T16:17:33.863Z,7.22
2017-12-22T16:20:09.595Z,7.19
2017-12-22T16:22:44.174Z,7.26
2017-12-22T16:25:18.657Z,7.26
2017-12-22T16:27:53.584Z,7.27
2017-12-22T16:30:27.974Z,7.00
2017-12-22T16:33:03.403Z,7.17
2017-12-22T16:35:38.422Z,7.17
2017-12-22T16:38:12.954Z,7.10
2017-12-22T16:40:47.414Z,7.11
2017-12-22T16:43:23.510Z,7.09
2017-12-22T16:46:01.130Z,7.05
2017-12-22T16:48:35.542Z,7.08
2017-12-22T16:51:09.998Z,7.10
2017-12-22T16:53:45.210Z,7.14
2017-12-22T16:56:19.773Z,7.11
2017-12-22T16:58:55.130Z,7.15
2017-12-22T17:01:30.746Z,7.18
2017-12-22T17:04:05.147Z,7.17
2017-12-22T17:06:39.794Z,7.15
2017-12-22T17:09:14.210Z,7.13
2017-12-22T17:11:48.769Z,7.14
2017-12-22T17:14:23.207Z,7.13
2017-12-22T17:16:57.668Z,7.14
2017-12-22T17:19:32.109Z,7.16
2017-12-22T17:22:06.530Z,7.13
2017-12-22T17:24:41.011Z,7.17
2017-12-22T17:27:15.803Z,7.15
2017-12-22T17:29:50.380Z,7.14
2017-12-22T17:32:24.837Z,7.11
2017-12-22T17:34:59.207Z,7.15
2017-12-22T17:37:33.594Z,7.13
2017-12-22T17:40:08.546Z,7.11
2017-12-22T17:42:43.037Z,7.10
2017-12-22T17:45:18.223Z,7.10
2017-12-22T17:47:52.755Z,7.11
2017-12-22T17:50:27.866Z,7.14
2017-12-22T17:53:02.383Z,7.11
2017-12-22T17:55:37.626Z,7.13
2017-12-22T17:58:12.234Z,7.00
2017-12-22T18:00:46.631Z,7.14
2017-12-22T18:03:21.761Z,7.12
2017-12-22T18:05:56.033Z,7.11
2017-12-22T18:08:30.189Z,7.13
2017-12-22T18:11:04.611Z,7.14
2017-12-22T18:13:39.044Z,7.14
2017-12-22T18:16:13.489Z,7.12
2017-12-22T18:18:48.059Z,7.15
2017-12-22T18:21:22.648Z,7.17
2017-12-22T18:23:57.446Z,7.16
2017-12-22T18:26:34.378Z,7.15
2017-12-22T18:29:08.795Z,7.16
2017-12-22T18:31:43.154Z,7.25
2017-12-22T18:34:17.572Z,7.24
2017-12-22T18:36:52.102Z,7.21
2017-12-22T18:39:26.646Z,7.20
2017-12-22T18:42:01.137Z,7.20
2017-12-22T18:44:36.485Z,7.17
2017-12-22T18:47:11.435Z,7.17
2017-12-22T18:49:46.646Z,7.06
2017-12-22T18:52:21.257Z,7.21
2017-12-22T18:54:55.830Z,7.20
2017-12-22T18:57:30.225Z,7.12
2017-12-22T19:00:13.548Z,7.19
2017-12-22T19:02:47.915Z,7.18
2017-12-22T19:05:23.958Z,7.21
2017-12-22T19:07:58.553Z,7.25
2017-12-22T19:10:33.019Z,7.28
2017-12-22T19:13:07.482Z,7.32
2017-12-22T19:15:42.190Z,7.29
2017-12-22T19:18:16.589Z,7.28
2017-12-22T19:20:51.834Z,7.19
2017-12-22T19:23:26.252Z,7.31
2017-12-22T19:26:01.342Z,7.36
2017-12-22T19:28:35.936Z,7.36
2017-12-22T19:31:10.595Z,7.39
2017-12-22T19:33:45.245Z,7.42
2017-12-22T19:36:20.140Z,7.41
2017-12-22T19:38:54.797Z,7.45
2017-12-22T19:41:29.211Z,7.47
2017-12-22T19:44:03.751Z,7.46
2017-12-22T19:46:38.163Z,7.46
2017-12-22T19:49:12.666Z,7.48
2017-12-22T19:51:48.094Z,7.37
2017-12-22T19:54:23.186Z,7.51
2017-12-22T19:56:57.739Z,7.55
2017-12-22T19:59:32.242Z,7.55
2017-12-22T20:02:06.886Z,7.57
2017-12-22T20:04:41.438Z,7.60
2017-12-22T20:07:15.886Z,7.62
2017-12-22T20:09:50.498Z,7.63
2017-12-22T20:12:24.968Z,7.64
2017-12-22T20:14:59.541Z,7.72
2017-12-22T20:17:33.922Z,7.69
2017-12-22T20:20:14.707Z,7.68
2017-12-22T20:22:50.147Z,7.67
2017-12-22T20:25:24.699Z,7.61
2017-12-22T20:28:00.109Z,7.60
2017-12-22T20:30:34.642Z,7.55
2017-12-22T20:33:09.171Z,7.65
2017-12-22T20:35:43.627Z,7.51
2017-12-22T20:38:18.160Z,7.56
2017-12-22T20:40:52.662Z,7.58
2017-12-22T20:43:27.186Z,7.59
2017-12-22T20:46:01.731Z,7.53
2017-12-22T20:48:36.245Z,7.33
2017-12-22T20:51:10.657Z,7.47
2017-12-22T20:53:45.193Z,7.46
2017-12-22T20:56:19.664Z,7.49
2017-12-22T20:58:54.200Z,7.52
2017-12-22T21:01:28.687Z,7.51
2017-12-22T21:04:03.212Z,7.44
2017-12-22T21:06:37.624Z,7.37
2017-12-22T21:09:12.901Z,7.43
2017-12-22T21:11:48.130Z,7.41
2017-12-22T21:14:22.783Z,7.42
2017-12-22T21:16:57.178Z,7.47
2017-12-22T21:19:31.634Z,7.52
2017-12-22T21:22:06.007Z,7.52
2017-12-22T21:24:40.649Z,7.55
2017-12-22T21:27:15.103Z,7.55
2017-12-22T21:29:50.513Z,7.56
2017-12-22T21:32:25.058Z,7.57
2017-12-22T21:35:02.331Z,7.59
2017-12-22T21:37:42.255Z,7.61
2017-12-22T21:40:16.824Z,7.48
2017-12-22T21:42:51.411Z,7.63
2017-12-22T21:45:25.775Z,7.65
2017-12-22T21:48:01.112Z,7.64
2017-12-22T21:50:35.513Z,7.44
2017-12-22T21:53:10.162Z,7.60
2017-12-22T21:55:44.561Z,7.61
2017-12-22T21:58:19.105Z,7.62
2017-12-22T22:00:53.426Z,7.60
2017-12-22T22:03:27.850Z,7.62
2017-12-22T22:06:02.366Z,7.59
2017-12-22T22:08:36.834Z,7.57
2017-12-22T22:11:11.199Z,7.57
2017-12-22T22:13:45.714Z,7.51
2017-12-22T22:16:20.116Z,7.52
2017-12-22T22:18:54.486Z,7.53
2017-12-22T22:21:28.983Z,7.48
2017-12-22T22:24:03.577Z,7.45
2017-12-22T22:26:38.011Z,7.42
2017-12-22T22:29:12.538Z,7.39
2017-12-22T22:31:47.026Z,7.36
2017-12-22T22:34:21.676Z,7.30
2017-12-22T22:36:56.299Z,7.26
2017-12-22T22:39:30.784Z,7.24
2017-12-22T22:42:05.244Z,7.24
2017-12-22T22:44:39.842Z,7.19
2017-12-22T22:47:14.433Z,7.17
2017-12-22T22:49:49.044Z,7.21
2017-12-22T22:52:23.419Z,7.23
2017-12-22T22:54:58.074Z,7.20
2017-12-22T22:57:32.460Z,7.19
2017-12-22T23:00:14.888Z,7.12
2017-12-22T23:02:49.485Z,7.10
2017-12-22T23:05:24.628Z,7.12
2017-12-22T23:07:59.187Z,7.03
2017-12-22T23:10:33.561Z,7.03
2017-12-22T23:13:08.038Z,6.97
2017-12-22T23:15:42.995Z,6.91
2017-12-22T23:18:17.515Z,6.88
2017-12-22T23:20:52.112Z,6.90
2017-12-22T23:23:26.491Z,6.89
2017-12-22T23:26:00.908Z,6.82
2017-12-22T23:28:35.429Z,6.85
2017-12-22T23:31:10.269Z,6.79
2017-12-22T23:33:44.755Z,6.81
2017-12-22T23:36:19.238Z,6.79
2017-12-22T23:38:53.789Z,6.81
2017-12-22T23:41:28.241Z,6.79
2017-12-22T23:44:02.808Z,6.72
2017-12-22T23:46:37.162Z,6.76
2017-12-22T23:49:11.845Z,6.67
2017-12-22T23:51:46.417Z,6.76
2017-12-22T23:54:20.922Z,6.79
2017-12-22T23:56:55.425Z,6.81
2017-12-22T23:59:30.009Z,6.81
